sensor_id;sensor_type;location;lat;lon;timestamp;temperature;humidity
21331;DHT22;10824;51.632;4.950;2023-02-12T00:01:26;7.80;99.90
21331;DHT22;10824;51.632;4.950;2023-02-12T00:03:58;7.90;99.90
21331;DHT22;10824;51.632;4.950;2023-02-12T00:06:26;7.80;99.90
21331;DHT22;10824;51.632;4.950;2023-02-12T00:08:56;7.80;99.90
21331;DHT22;10824;51.632;4.950;2023-02-12T00:11:26;7.80;99.90
21331;DHT22;10824;51.632;4.950;2023-02-12T00:13:54;7.80;99.90
21331;DHT22;10824;51.632;4.950;2023-02-12T00:16:25;7.80;99.90
21331;DHT22;10824;51.632;4.950;2023-02-12T00:18:55;7.70;99.90
21331;DHT22;10824;51.632;4.950;2023-02-12T00:21:22;7.80;99.90
21331;DHT22;10824;51.632;4.950;2023-02-12T00:23:50;7.70;99.90
21331;DHT22;10824;51.632;4.950;2023-02-12T00:26:18;7.70;99.90
21331;DHT22;10824;51.632;4.950;2023-02-12T00:28:48;7.70;99.90
21331;DHT22;10824;51.632;4.950;2023-02-12T00:31:21;7.70;99.90
21331;DHT22;10824;51.632;4.950;2023-02-12T00:33:49;7.60;99.90
21331;DHT22;10824;51.632;4.950;2023-02-12T00:36:20;7.60;99.90
21331;DHT22;10824;51.632;4.950;2023-02-12T00:38:50;7.60;99.90
21331;DHT22;10824;51.632;4.950;2023-02-12T00:41:18;7.60;99.90
21331;DHT22;10824;51.632;4.950;2023-02-12T00:43:45;7.60;99.90
21331;DHT22;10824;51.632;4.950;2023-02-12T00:46:13;7.70;99.90
21331;DHT22;10824;51.632;4.950;2023-02-12T00:48:40;7.60;99.90
21331;DHT22;10824;51.632;4.950;2023-02-12T00:51:07;7.60;99.90
21331;DHT22;10824;51.632;4.950;2023-02-12T00:53:35;7.70;99.90
21331;DHT22;10824;51.632;4.950;2023-02-12T00:56:03;7.60;99.90
21331;DHT22;10824;51.632;4.950;2023-02-12T00:58:30;7.50;99.90
21331;DHT22;10824;51.632;4.950;2023-02-12T01:00:58;7.50;99.90
21331;DHT22;10824;51.632;4.950;2023-02-12T01:03:25;7.50;99.90
21331;DHT22;10824;51.632;4.950;2023-02-12T01:05:53;7.50;99.90
21331;DHT22;10824;51.632;4.950;2023-02-12T01:08:20;7.50;99.90
21331;DHT22;10824;51.632;4.950;2023-02-12T01:11:00;7.50;99.90
21331;DHT22;10824;51.632;4.950;2023-02-12T01:13:28;7.50;99.90
21331;DHT22;10824;51.632;4.950;2023-02-12T01:16:05;7.50;99.90
21331;DHT22;10824;51.632;4.950;2023-02-12T01:18:36;7.50;99.90
21331;DHT22;10824;51.632;4.950;2023-02-12T01:21:19;7.50;99.90
21331;DHT22;10824;51.632;4.950;2023-02-12T01:23:47;7.50;99.90
21331;DHT22;10824;51.632;4.950;2023-02-12T01:26:16;7.50;99.90
21331;DHT22;10824;51.632;4.950;2023-02-12T01:28:48;7.50;99.90
21331;DHT22;10824;51.632;4.950;2023-02-12T01:31:20;7.50;99.90
21331;DHT22;10824;51.632;4.950;2023-02-12T01:33:51;7.50;99.90
21331;DHT22;10824;51.632;4.950;2023-02-12T01:36:19;7.50;99.90
21331;DHT22;10824;51.632;4.950;2023-02-12T01:38:48;7.50;99.90
21331;DHT22;10824;51.632;4.950;2023-02-12T01:41:22;7.50;99.90
21331;DHT22;10824;51.632;4.950;2023-02-12T01:44:13;7.50;99.90
21331;DHT22;10824;51.632;4.950;2023-02-12T01:46:42;7.50;99.90
21331;DHT22;10824;51.632;4.950;2023-02-12T01:49:51;7.50;99.90
21331;DHT22;10824;51.632;4.950;2023-02-12T01:52:31;7.40;99.90
21331;DHT22;10824;51.632;4.950;2023-02-12T01:55:05;7.40;99.90
21331;DHT22;10824;51.632;4.950;2023-02-12T01:57:40;7.30;99.90
21331;DHT22;10824;51.632;4.950;2023-02-12T02:00:12;7.30;99.90
21331;DHT22;10824;51.632;4.950;2023-02-12T02:02:59;7.30;99.90
21331;DHT22;10824;51.632;4.950;2023-02-12T02:05:40;7.40;99.90
21331;DHT22;10824;51.632;4.950;2023-02-12T02:08:09;7.40;99.90
21331;DHT22;10824;51.632;4.950;2023-02-12T02:10:36;7.40;99.90
21331;DHT22;10824;51.632;4.950;2023-02-12T02:13:03;7.40;99.90
21331;DHT22;10824;51.632;4.950;2023-02-12T02:15:54;7.40;99.90
21331;DHT22;10824;51.632;4.950;2023-02-12T02:18:31;7.40;99.90
21331;DHT22;10824;51.632;4.950;2023-02-12T02:24:03;7.40;99.90
21331;DHT22;10824;51.632;4.950;2023-02-12T02:32:23;7.40;99.90
21331;DHT22;10824;51.632;4.950;2023-02-12T02:38:10;7.40;99.90
21331;DHT22;10824;51.632;4.950;2023-02-12T02:40:59;7.40;99.90
21331;DHT22;10824;51.632;4.950;2023-02-12T02:43:34;7.40;99.90
21331;DHT22;10824;51.632;4.950;2023-02-12T02:48:53;7.40;99.90
21331;DHT22;10824;51.632;4.950;2023-02-12T02:51:30;7.40;99.90
21331;DHT22;10824;51.632;4.950;2023-02-12T02:54:25;7.40;99.90
21331;DHT22;10824;51.632;4.950;2023-02-12T02:56:58;7.40;99.90
21331;DHT22;10824;51.632;4.950;2023-02-12T02:59:30;7.40;99.90
21331;DHT22;10824;51.632;4.950;2023-02-12T03:02:11;7.30;99.90
21331;DHT22;10824;51.632;4.950;2023-02-12T03:04:46;7.40;99.90
21331;DHT22;10824;51.632;4.950;2023-02-12T03:07:27;7.30;99.90
21331;DHT22;10824;51.632;4.950;2023-02-12T03:10:05;7.30;99.90
21331;DHT22;10824;51.632;4.950;2023-02-12T03:12:46;7.30;99.90
21331;DHT22;10824;51.632;4.950;2023-02-12T03:15:20;7.30;99.90
21331;DHT22;10824;51.632;4.950;2023-02-12T03:17:50;7.30;99.90
21331;DHT22;10824;51.632;4.950;2023-02-12T03:20:25;7.30;99.90
21331;DHT22;10824;51.632;4.950;2023-02-12T03:23:10;7.30;99.90
21331;DHT22;10824;51.632;4.950;2023-02-12T03:25:53;7.30;99.90
21331;DHT22;10824;51.632;4.950;2023-02-12T03:28:29;7.30;99.90
21331;DHT22;10824;51.632;4.950;2023-02-12T03:31:48;7.30;99.90
21331;DHT22;10824;51.632;4.950;2023-02-12T03:34:23;7.30;99.90
21331;DHT22;10824;51.632;4.950;2023-02-12T03:37:00;7.30;99.90
21331;DHT22;10824;51.632;4.950;2023-02-12T03:52:36;7.20;99.90
21331;DHT22;10824;51.632;4.950;2023-02-12T03:55:04;7.20;99.90
21331;DHT22;10824;51.632;4.950;2023-02-12T03:57:36;7.20;99.90
21331;DHT22;10824;51.632;4.950;2023-02-12T04:00:09;7.20;99.90
21331;DHT22;10824;51.632;4.950;2023-02-12T04:02:40;7.20;99.90
21331;DHT22;10824;51.632;4.950;2023-02-12T04:05:19;7.20;99.90
21331;DHT22;10824;51.632;4.950;2023-02-12T04:07:46;7.20;99.90
21331;DHT22;10824;51.632;4.950;2023-02-12T04:10:15;7.20;99.90
21331;DHT22;10824;51.632;4.950;2023-02-12T04:15:49;7.20;99.90
21331;DHT22;10824;51.632;4.950;2023-02-12T04:18:27;7.20;99.90
21331;DHT22;10824;51.632;4.950;2023-02-12T04:24:49;7.20;99.90
21331;DHT22;10824;51.632;4.950;2023-02-12T04:31:57;7.20;99.90
21331;DHT22;10824;51.632;4.950;2023-02-12T04:34:38;7.20;99.90
21331;DHT22;10824;51.632;4.950;2023-02-12T04:37:29;7.20;99.90
21331;DHT22;10824;51.632;4.950;2023-02-12T04:39:59;7.20;99.90
21331;DHT22;10824;51.632;4.950;2023-02-12T04:42:28;7.20;99.90
21331;DHT22;10824;51.632;4.950;2023-02-12T04:44:55;7.10;99.90
21331;DHT22;10824;51.632;4.950;2023-02-12T04:47:22;7.10;99.90
21331;DHT22;10824;51.632;4.950;2023-02-12T04:49:50;7.10;99.90
21331;DHT22;10824;51.632;4.950;2023-02-12T04:52:16;7.10;99.90
21331;DHT22;10824;51.632;4.950;2023-02-12T04:54:44;7.10;99.90
21331;DHT22;10824;51.632;4.950;2023-02-12T04:57:11;7.10;99.90
21331;DHT22;10824;51.632;4.950;2023-02-12T04:59:38;7.10;99.90
21331;DHT22;10824;51.632;4.950;2023-02-12T05:02:05;7.10;99.90
21331;DHT22;10824;51.632;4.950;2023-02-12T05:04:32;7.10;99.90
21331;DHT22;10824;51.632;4.950;2023-02-12T05:06:59;7.00;99.90
21331;DHT22;10824;51.632;4.950;2023-02-12T05:09:26;7.00;99.90
21331;DHT22;10824;51.632;4.950;2023-02-12T05:11:53;7.00;99.90
21331;DHT22;10824;51.632;4.950;2023-02-12T05:14:23;7.00;99.90
21331;DHT22;10824;51.632;4.950;2023-02-12T05:16:50;7.00;99.90
21331;DHT22;10824;51.632;4.950;2023-02-12T05:19:17;7.00;99.90
21331;DHT22;10824;51.632;4.950;2023-02-12T05:21:44;7.00;99.90
21331;DHT22;10824;51.632;4.950;2023-02-12T05:24:11;7.00;99.90
21331;DHT22;10824;51.632;4.950;2023-02-12T05:26:38;7.00;99.90
21331;DHT22;10824;51.632;4.950;2023-02-12T05:29:05;7.00;99.90
21331;DHT22;10824;51.632;4.950;2023-02-12T05:31:32;7.00;99.90
21331;DHT22;10824;51.632;4.950;2023-02-12T05:34:00;7.00;99.90
21331;DHT22;10824;51.632;4.950;2023-02-12T05:36:27;7.00;99.90
21331;DHT22;10824;51.632;4.950;2023-02-12T05:38:57;7.00;99.90
21331;DHT22;10824;51.632;4.950;2023-02-12T05:41:26;7.00;99.90
21331;DHT22;10824;51.632;4.950;2023-02-12T05:43:53;7.00;99.90
21331;DHT22;10824;51.632;4.950;2023-02-12T05:46:21;7.00;99.90
21331;DHT22;10824;51.632;4.950;2023-02-12T05:48:48;7.00;99.90
21331;DHT22;10824;51.632;4.950;2023-02-12T05:51:18;6.90;99.90
21331;DHT22;10824;51.632;4.950;2023-02-12T05:53:48;6.90;99.90
21331;DHT22;10824;51.632;4.950;2023-02-12T05:56:18;6.90;99.90
21331;DHT22;10824;51.632;4.950;2023-02-12T05:58:47;6.90;99.90
21331;DHT22;10824;51.632;4.950;2023-02-12T06:01:21;7.00;99.90
21331;DHT22;10824;51.632;4.950;2023-02-12T06:03:48;7.00;99.90
21331;DHT22;10824;51.632;4.950;2023-02-12T06:06:15;7.00;99.90
21331;DHT22;10824;51.632;4.950;2023-02-12T06:08:42;7.00;99.90
21331;DHT22;10824;51.632;4.950;2023-02-12T06:11:12;7.00;99.90
21331;DHT22;10824;51.632;4.950;2023-02-12T06:13:42;7.00;99.90
21331;DHT22;10824;51.632;4.950;2023-02-12T06:16:26;7.00;99.90
21331;DHT22;10824;51.632;4.950;2023-02-12T06:18:55;7.00;99.90
21331;DHT22;10824;51.632;4.950;2023-02-12T06:21:25;7.00;99.90
21331;DHT22;10824;51.632;4.950;2023-02-12T06:23:52;7.00;99.90
21331;DHT22;10824;51.632;4.950;2023-02-12T06:26:20;7.00;99.90
21331;DHT22;10824;51.632;4.950;2023-02-12T06:28:48;7.00;99.90
21331;DHT22;10824;51.632;4.950;2023-02-12T06:31:23;7.00;99.90
21331;DHT22;10824;51.632;4.950;2023-02-12T06:33:55;7.00;99.90
21331;DHT22;10824;51.632;4.950;2023-02-12T06:36:23;6.90;99.90
21331;DHT22;10824;51.632;4.950;2023-02-12T06:38:50;6.90;99.90
21331;DHT22;10824;51.632;4.950;2023-02-12T06:41:18;6.90;99.90
21331;DHT22;10824;51.632;4.950;2023-02-12T06:43:46;7.00;99.90
21331;DHT22;10824;51.632;4.950;2023-02-12T06:46:14;6.90;99.90
21331;DHT22;10824;51.632;4.950;2023-02-12T06:48:41;6.90;99.90
21331;DHT22;10824;51.632;4.950;2023-02-12T06:51:12;6.90;99.90
21331;DHT22;10824;51.632;4.950;2023-02-12T06:53:41;6.90;99.90
21331;DHT22;10824;51.632;4.950;2023-02-12T06:56:10;6.90;99.90
21331;DHT22;10824;51.632;4.950;2023-02-12T06:58:44;6.90;99.90
21331;DHT22;10824;51.632;4.950;2023-02-12T07:01:17;6.90;99.90
21331;DHT22;10824;51.632;4.950;2023-02-12T07:03:50;6.90;99.90
21331;DHT22;10824;51.632;4.950;2023-02-12T07:06:22;6.90;99.90
21331;DHT22;10824;51.632;4.950;2023-02-12T07:08:50;6.90;99.90
21331;DHT22;10824;51.632;4.950;2023-02-12T07:11:29;6.90;99.90
21331;DHT22;10824;51.632;4.950;2023-02-12T07:13:59;6.80;99.90
21331;DHT22;10824;51.632;4.950;2023-02-12T07:16:26;6.90;99.90
21331;DHT22;10824;51.632;4.950;2023-02-12T07:18:54;6.90;99.90
21331;DHT22;10824;51.632;4.950;2023-02-12T07:21:24;6.90;99.90
21331;DHT22;10824;51.632;4.950;2023-02-12T07:23:52;6.90;99.90
21331;DHT22;10824;51.632;4.950;2023-02-12T07:26:20;6.90;99.90
21331;DHT22;10824;51.632;4.950;2023-02-12T07:28:48;6.90;99.90
21331;DHT22;10824;51.632;4.950;2023-02-12T07:31:18;6.90;99.90
21331;DHT22;10824;51.632;4.950;2023-02-12T07:33:46;6.90;99.90
21331;DHT22;10824;51.632;4.950;2023-02-12T07:36:26;7.00;99.90
21331;DHT22;10824;51.632;4.950;2023-02-12T07:38:56;7.00;99.90
21331;DHT22;10824;51.632;4.950;2023-02-12T07:41:28;7.00;99.90
21331;DHT22;10824;51.632;4.950;2023-02-12T07:44:02;7.00;99.90
21331;DHT22;10824;51.632;4.950;2023-02-12T07:46:36;7.00;99.90
21331;DHT22;10824;51.632;4.950;2023-02-12T07:49:05;7.00;99.90
21331;DHT22;10824;51.632;4.950;2023-02-12T07:51:45;7.00;99.90
21331;DHT22;10824;51.632;4.950;2023-02-12T07:54:16;7.00;99.90
21331;DHT22;10824;51.632;4.950;2023-02-12T07:56:48;7.00;99.90
21331;DHT22;10824;51.632;4.950;2023-02-12T07:59:17;7.00;99.90
21331;DHT22;10824;51.632;4.950;2023-02-12T08:01:55;7.00;99.90
21331;DHT22;10824;51.632;4.950;2023-02-12T08:04:28;7.00;99.90
21331;DHT22;10824;51.632;4.950;2023-02-12T08:06:56;7.00;99.90
21331;DHT22;10824;51.632;4.950;2023-02-12T08:09:28;7.00;99.90
21331;DHT22;10824;51.632;4.950;2023-02-12T08:11:57;7.10;99.90
21331;DHT22;10824;51.632;4.950;2023-02-12T08:14:28;7.10;99.90
21331;DHT22;10824;51.632;4.950;2023-02-12T08:16:55;7.10;99.90
21331;DHT22;10824;51.632;4.950;2023-02-12T08:19:23;7.10;99.90
21331;DHT22;10824;51.632;4.950;2023-02-12T08:21:58;7.10;99.90
21331;DHT22;10824;51.632;4.950;2023-02-12T08:24:25;7.10;99.90
21331;DHT22;10824;51.632;4.950;2023-02-12T08:26:57;7.10;99.90
21331;DHT22;10824;51.632;4.950;2023-02-12T08:29:28;7.10;99.90
21331;DHT22;10824;51.632;4.950;2023-02-12T08:32:04;7.10;99.90
21331;DHT22;10824;51.632;4.950;2023-02-12T08:34:36;7.10;99.90
21331;DHT22;10824;51.632;4.950;2023-02-12T08:37:04;7.20;99.90
21331;DHT22;10824;51.632;4.950;2023-02-12T08:39:33;7.20;99.90
21331;DHT22;10824;51.632;4.950;2023-02-12T08:42:00;7.20;99.90
21331;DHT22;10824;51.632;4.950;2023-02-12T08:44:28;7.20;99.90
21331;DHT22;10824;51.632;4.950;2023-02-12T08:46:56;7.20;99.90
21331;DHT22;10824;51.632;4.950;2023-02-12T08:49:29;7.20;99.90
21331;DHT22;10824;51.632;4.950;2023-02-12T08:51:58;7.20;99.90
21331;DHT22;10824;51.632;4.950;2023-02-12T08:54:27;7.20;99.90
21331;DHT22;10824;51.632;4.950;2023-02-12T08:57:01;7.20;99.90
21331;DHT22;10824;51.632;4.950;2023-02-12T08:59:55;7.30;99.90
21331;DHT22;10824;51.632;4.950;2023-02-12T09:02:22;7.30;99.90
21331;DHT22;10824;51.632;4.950;2023-02-12T09:05:03;7.30;99.90
21331;DHT22;10824;51.632;4.950;2023-02-12T09:07:30;7.40;99.90
21331;DHT22;10824;51.632;4.950;2023-02-12T09:09:57;7.40;99.90
21331;DHT22;10824;51.632;4.950;2023-02-12T09:12:27;7.40;99.90
21331;DHT22;10824;51.632;4.950;2023-02-12T09:14:54;7.40;99.90
21331;DHT22;10824;51.632;4.950;2023-02-12T09:17:21;7.40;99.90
21331;DHT22;10824;51.632;4.950;2023-02-12T09:19:53;7.40;99.90
21331;DHT22;10824;51.632;4.950;2023-02-12T09:22:24;7.50;99.90
21331;DHT22;10824;51.632;4.950;2023-02-12T09:24:51;7.50;99.90
21331;DHT22;10824;51.632;4.950;2023-02-12T09:27:18;7.50;99.90
21331;DHT22;10824;51.632;4.950;2023-02-12T09:29:45;7.50;99.90
21331;DHT22;10824;51.632;4.950;2023-02-12T09:32:15;7.50;99.90
21331;DHT22;10824;51.632;4.950;2023-02-12T09:34:45;7.50;99.90
21331;DHT22;10824;51.632;4.950;2023-02-12T09:37:12;7.60;99.90
21331;DHT22;10824;51.632;4.950;2023-02-12T09:39:45;7.60;99.80
21331;DHT22;10824;51.632;4.950;2023-02-12T09:45:24;7.60;99.10
21331;DHT22;10824;51.632;4.950;2023-02-12T09:47:59;7.60;99.20
21331;DHT22;10824;51.632;4.950;2023-02-12T09:50:36;7.60;99.10
21331;DHT22;10824;51.632;4.950;2023-02-12T09:53:15;7.60;99.10
21331;DHT22;10824;51.632;4.950;2023-02-12T09:55:49;7.70;99.30
21331;DHT22;10824;51.632;4.950;2023-02-12T09:58:37;7.70;99.00
21331;DHT22;10824;51.632;4.950;2023-02-12T10:01:18;7.70;99.10
21331;DHT22;10824;51.632;4.950;2023-02-12T10:03:50;7.70;98.50
21331;DHT22;10824;51.632;4.950;2023-02-12T10:11:50;7.80;98.40
21331;DHT22;10824;51.632;4.950;2023-02-12T10:18:37;7.80;98.40
21331;DHT22;10824;51.632;4.950;2023-02-12T10:20:51;7.80;98.60
21331;DHT22;10824;51.632;4.950;2023-02-12T10:26:21;7.90;98.20
21331;DHT22;10824;51.632;4.950;2023-02-12T10:29:07;7.90;98.00
21331;DHT22;10824;51.632;4.950;2023-02-12T10:31:41;8.00;97.60
21331;DHT22;10824;51.632;4.950;2023-02-12T10:34:34;8.00;97.00
21331;DHT22;10824;51.632;4.950;2023-02-12T10:40:28;8.00;97.10
21331;DHT22;10824;51.632;4.950;2023-02-12T10:42:59;8.10;96.70
21331;DHT22;10824;51.632;4.950;2023-02-12T10:45:43;8.10;96.80
21331;DHT22;10824;51.632;4.950;2023-02-12T10:48:34;8.10;95.70
21331;DHT22;10824;51.632;4.950;2023-02-12T10:53:44;8.10;96.20
21331;DHT22;10824;51.632;4.950;2023-02-12T10:56:15;8.20;96.10
21331;DHT22;10824;51.632;4.950;2023-02-12T10:58:51;8.20;96.00
21331;DHT22;10824;51.632;4.950;2023-02-12T11:01:36;8.20;95.60
21331;DHT22;10824;51.632;4.950;2023-02-12T11:04:24;8.20;95.00
21331;DHT22;10824;51.632;4.950;2023-02-12T11:07:04;8.30;94.60
21331;DHT22;10824;51.632;4.950;2023-02-12T11:09:43;8.30;94.30
21331;DHT22;10824;51.632;4.950;2023-02-12T11:12:40;8.30;94.80
21331;DHT22;10824;51.632;4.950;2023-02-12T11:15:19;8.40;95.00
21331;DHT22;10824;51.632;4.950;2023-02-12T11:18:01;8.30;95.20
21331;DHT22;10824;51.632;4.950;2023-02-12T11:20:40;8.40;94.50
21331;DHT22;10824;51.632;4.950;2023-02-12T11:23:43;8.40;93.30
21331;DHT22;10824;51.632;4.950;2023-02-12T11:28:54;8.50;93.10
21331;DHT22;10824;51.632;4.950;2023-02-12T11:31:33;8.50;94.10
21331;DHT22;10824;51.632;4.950;2023-02-12T11:34:16;8.50;93.50
21331;DHT22;10824;51.632;4.950;2023-02-12T11:36:48;8.60;93.10
21331;DHT22;10824;51.632;4.950;2023-02-12T11:39:40;8.60;91.40
21331;DHT22;10824;51.632;4.950;2023-02-12T11:42:21;8.60;90.20
21331;DHT22;10824;51.632;4.950;2023-02-12T11:44:54;8.60;89.40
21331;DHT22;10824;51.632;4.950;2023-02-12T11:47:34;8.60;88.40
21331;DHT22;10824;51.632;4.950;2023-02-12T11:50:15;8.60;88.10
21331;DHT22;10824;51.632;4.950;2023-02-12T11:52:51;8.70;87.30
21331;DHT22;10824;51.632;4.950;2023-02-12T11:55:36;8.60;87.30
21331;DHT22;10824;51.632;4.950;2023-02-12T11:58:25;8.70;88.00
21331;DHT22;10824;51.632;4.950;2023-02-12T12:01:04;8.70;88.10
21331;DHT22;10824;51.632;4.950;2023-02-12T12:09:01;8.70;87.70
21331;DHT22;10824;51.632;4.950;2023-02-12T12:14:34;8.70;86.80
21331;DHT22;10824;51.632;4.950;2023-02-12T12:17:36;8.70;88.30
21331;DHT22;10824;51.632;4.950;2023-02-12T12:20:28;8.80;87.70
21331;DHT22;10824;51.632;4.950;2023-02-12T12:23:25;8.80;89.40
21331;DHT22;10824;51.632;4.950;2023-02-12T12:26:02;8.80;91.00
21331;DHT22;10824;51.632;4.950;2023-02-12T12:31:40;8.80;90.30
21331;DHT22;10824;51.632;4.950;2023-02-12T12:34:20;8.80;89.00
21331;DHT22;10824;51.632;4.950;2023-02-12T12:37:24;8.80;90.20
21331;DHT22;10824;51.632;4.950;2023-02-12T12:56:48;8.80;68.70
21331;DHT22;10824;51.632;4.950;2023-02-12T12:59:27;8.80;65.90
21331;DHT22;10824;51.632;4.950;2023-02-12T13:10:47;8.80;67.60
21331;DHT22;10824;51.632;4.950;2023-02-12T13:13:19;8.80;67.00
21331;DHT22;10824;51.632;4.950;2023-02-12T13:26:30;8.90;67.60
21331;DHT22;10824;51.632;4.950;2023-02-12T13:34:31;8.80;66.20
21331;DHT22;10824;51.632;4.950;2023-02-12T13:37:00;8.80;66.20
21331;DHT22;10824;51.632;4.950;2023-02-12T13:39:38;8.90;66.80
21331;DHT22;10824;51.632;4.950;2023-02-12T13:42:35;8.90;67.90
21331;DHT22;10824;51.632;4.950;2023-02-12T13:45:26;8.90;66.00
21331;DHT22;10824;51.632;4.950;2023-02-12T13:53:49;8.90;67.70
21331;DHT22;10824;51.632;4.950;2023-02-12T14:02:01;8.90;67.10
21331;DHT22;10824;51.632;4.950;2023-02-12T14:04:55;8.90;70.20
21331;DHT22;10824;51.632;4.950;2023-02-12T14:07:54;9.00;71.00
21331;DHT22;10824;51.632;4.950;2023-02-12T14:10:43;9.00;68.00
21331;DHT22;10824;51.632;4.950;2023-02-12T14:13:56;8.90;68.20
21331;DHT22;10824;51.632;4.950;2023-02-12T14:24:54;8.90;65.40
21331;DHT22;10824;51.632;4.950;2023-02-12T14:27:44;8.90;68.30
21331;DHT22;10824;51.632;4.950;2023-02-12T14:35:35;9.00;70.80
21331;DHT22;10824;51.632;4.950;2023-02-12T14:40:50;8.90;72.70
21331;DHT22;10824;51.632;4.950;2023-02-12T14:43:37;8.90;72.90
21331;DHT22;10824;51.632;4.950;2023-02-12T14:50:24;8.80;71.20
21331;DHT22;10824;51.632;4.950;2023-02-12T14:53:33;8.80;72.40
21331;DHT22;10824;51.632;4.950;2023-02-12T14:56:06;8.80;71.80
21331;DHT22;10824;51.632;4.950;2023-02-12T14:58:45;8.80;73.40
21331;DHT22;10824;51.632;4.950;2023-02-12T15:01:17;8.80;71.40
21331;DHT22;10824;51.632;4.950;2023-02-12T15:03:49;8.80;69.80
21331;DHT22;10824;51.632;4.950;2023-02-12T15:06:39;8.80;69.60
21331;DHT22;10824;51.632;4.950;2023-02-12T15:09:14;8.80;71.40
21331;DHT22;10824;51.632;4.950;2023-02-12T15:11:51;8.80;70.40
21331;DHT22;10824;51.632;4.950;2023-02-12T15:14:27;8.80;69.80
21331;DHT22;10824;51.632;4.950;2023-02-12T15:17:14;8.70;70.10
21331;DHT22;10824;51.632;4.950;2023-02-12T15:20:24;8.70;69.60
21331;DHT22;10824;51.632;4.950;2023-02-12T15:22:54;8.80;70.30
21331;DHT22;10824;51.632;4.950;2023-02-12T15:25:29;8.70;69.60
21331;DHT22;10824;51.632;4.950;2023-02-12T15:28:23;8.70;70.10
21331;DHT22;10824;51.632;4.950;2023-02-12T15:30:53;8.70;71.10
21331;DHT22;10824;51.632;4.950;2023-02-12T15:33:29;8.80;72.50
21331;DHT22;10824;51.632;4.950;2023-02-12T15:36:01;8.70;72.90
21331;DHT22;10824;51.632;4.950;2023-02-12T15:38:39;8.70;72.90
21331;DHT22;10824;51.632;4.950;2023-02-12T15:41:08;8.70;72.30
21331;DHT22;10824;51.632;4.950;2023-02-12T15:44:04;8.70;71.70
21331;DHT22;10824;51.632;4.950;2023-02-12T15:47:14;8.70;70.90
21331;DHT22;10824;51.632;4.950;2023-02-12T15:49:45;8.70;70.10
21331;DHT22;10824;51.632;4.950;2023-02-12T15:52:21;8.70;69.90
21331;DHT22;10824;51.632;4.950;2023-02-12T15:54:51;8.70;69.80
21331;DHT22;10824;51.632;4.950;2023-02-12T15:57:23;8.60;70.90
21331;DHT22;10824;51.632;4.950;2023-02-12T16:04:12;8.60;72.60
21331;DHT22;10824;51.632;4.950;2023-02-12T16:06:59;8.60;73.60
21331;DHT22;10824;51.632;4.950;2023-02-12T16:10:09;8.60;73.20
21331;DHT22;10824;51.632;4.950;2023-02-12T16:13:04;8.60;74.50
21331;DHT22;10824;51.632;4.950;2023-02-12T16:15:33;8.50;73.90
21331;DHT22;10824;51.632;4.950;2023-02-12T16:18:25;8.50;74.40
21331;DHT22;10824;51.632;4.950;2023-02-12T16:21:34;8.50;75.00
21331;DHT22;10824;51.632;4.950;2023-02-12T16:24:32;8.50;75.70
21331;DHT22;10824;51.632;4.950;2023-02-12T16:27:27;8.50;76.20
21331;DHT22;10824;51.632;4.950;2023-02-12T16:32:58;8.50;77.50
21331;DHT22;10824;51.632;4.950;2023-02-12T16:35:34;8.40;77.80
21331;DHT22;10824;51.632;4.950;2023-02-12T16:46:33;8.40;79.50
21331;DHT22;10824;51.632;4.950;2023-02-12T16:49:17;8.40;80.10
21331;DHT22;10824;51.632;4.950;2023-02-12T16:51:45;8.40;80.90
21331;DHT22;10824;51.632;4.950;2023-02-12T16:54:33;8.30;81.30
21331;DHT22;10824;51.632;4.950;2023-02-12T16:57:00;8.30;81.80
21331;DHT22;10824;51.632;4.950;2023-02-12T16:59:28;8.30;82.00
21331;DHT22;10824;51.632;4.950;2023-02-12T17:02:01;8.30;82.40
21331;DHT22;10824;51.632;4.950;2023-02-12T17:04:29;8.30;82.60
21331;DHT22;10824;51.632;4.950;2023-02-12T17:06:57;8.30;82.20
21331;DHT22;10824;51.632;4.950;2023-02-12T17:09:24;8.30;82.00
21331;DHT22;10824;51.632;4.950;2023-02-12T17:11:51;8.30;82.10
21331;DHT22;10824;51.632;4.950;2023-02-12T17:14:19;8.30;81.70
21331;DHT22;10824;51.632;4.950;2023-02-12T17:16:49;8.30;81.70
21331;DHT22;10824;51.632;4.950;2023-02-12T17:19:26;8.30;82.60
21331;DHT22;10824;51.632;4.950;2023-02-12T17:21:57;8.20;80.90
21331;DHT22;10824;51.632;4.950;2023-02-12T17:24:26;8.20;81.00
21331;DHT22;10824;51.632;4.950;2023-02-12T17:26:56;8.20;80.80
21331;DHT22;10824;51.632;4.950;2023-02-12T17:29:25;8.20;82.30
21331;DHT22;10824;51.632;4.950;2023-02-12T17:31:53;8.20;81.10
21331;DHT22;10824;51.632;4.950;2023-02-12T17:34:22;8.20;81.00
21331;DHT22;10824;51.632;4.950;2023-02-12T17:36:57;8.20;81.20
21331;DHT22;10824;51.632;4.950;2023-02-12T17:39:25;8.20;81.00
21331;DHT22;10824;51.632;4.950;2023-02-12T17:41:52;8.20;81.00
21331;DHT22;10824;51.632;4.950;2023-02-12T17:44:19;8.20;82.00
21331;DHT22;10824;51.632;4.950;2023-02-12T17:46:48;8.20;80.80
21331;DHT22;10824;51.632;4.950;2023-02-12T17:49:15;8.20;80.70
21331;DHT22;10824;51.632;4.950;2023-02-12T17:51:42;8.10;80.00
21331;DHT22;10824;51.632;4.950;2023-02-12T17:54:09;8.10;80.30
21331;DHT22;10824;51.632;4.950;2023-02-12T17:56:36;8.10;79.80
21331;DHT22;10824;51.632;4.950;2023-02-12T17:59:04;8.10;79.80
21331;DHT22;10824;51.632;4.950;2023-02-12T18:01:31;8.10;80.60
21331;DHT22;10824;51.632;4.950;2023-02-12T18:04:00;8.10;81.40
21331;DHT22;10824;51.632;4.950;2023-02-12T18:06:29;8.10;81.70
21331;DHT22;10824;51.632;4.950;2023-02-12T18:08:57;8.10;82.80
21331;DHT22;10824;51.632;4.950;2023-02-12T18:11:27;8.10;84.40
21331;DHT22;10824;51.632;4.950;2023-02-12T18:13:56;8.00;85.10
21331;DHT22;10824;51.632;4.950;2023-02-12T18:16:26;8.00;86.50
21331;DHT22;10824;51.632;4.950;2023-02-12T18:18:54;8.00;87.30
21331;DHT22;10824;51.632;4.950;2023-02-12T18:21:23;8.00;88.10
21331;DHT22;10824;51.632;4.950;2023-02-12T18:23:52;8.00;89.10
21331;DHT22;10824;51.632;4.950;2023-02-12T18:26:20;8.00;89.20
21331;DHT22;10824;51.632;4.950;2023-02-12T18:28:47;8.00;89.30
21331;DHT22;10824;51.632;4.950;2023-02-12T18:31:15;8.00;88.80
21331;DHT22;10824;51.632;4.950;2023-02-12T18:33:44;8.00;88.30
21331;DHT22;10824;51.632;4.950;2023-02-12T18:36:15;8.00;87.80
21331;DHT22;10824;51.632;4.950;2023-02-12T18:38:45;8.00;87.20
21331;DHT22;10824;51.632;4.950;2023-02-12T18:41:23;8.00;87.00
21331;DHT22;10824;51.632;4.950;2023-02-12T18:43:51;8.00;87.10
21331;DHT22;10824;51.632;4.950;2023-02-12T18:46:21;8.00;86.50
21331;DHT22;10824;51.632;4.950;2023-02-12T18:48:49;8.00;86.30
21331;DHT22;10824;51.632;4.950;2023-02-12T18:51:20;8.00;86.10
21331;DHT22;10824;51.632;4.950;2023-02-12T18:53:57;7.90;86.10
21331;DHT22;10824;51.632;4.950;2023-02-12T18:56:31;8.00;86.70
21331;DHT22;10824;51.632;4.950;2023-02-12T18:59:01;8.00;87.10
21331;DHT22;10824;51.632;4.950;2023-02-12T19:01:30;7.90;87.70
21331;DHT22;10824;51.632;4.950;2023-02-12T19:04:00;7.90;87.60
21331;DHT22;10824;51.632;4.950;2023-02-12T19:06:29;7.90;88.30
21331;DHT22;10824;51.632;4.950;2023-02-12T19:09:02;7.90;88.70
21331;DHT22;10824;51.632;4.950;2023-02-12T19:11:34;7.90;89.00
21331;DHT22;10824;51.632;4.950;2023-02-12T19:14:02;7.90;89.60